sensor_id;sensor_type;location;lat;lon;timestamp;P1;durP1;ratioP1;P2;durP2;ratioP2
23206;SDS011;11773;52.570;13.052;2022-12-18T00:01:36;8.37;;;4.80;;
23206;SDS011;11773;52.570;13.052;2022-12-18T00:04:07;9.60;;;5.00;;
23206;SDS011;11773;52.570;13.052;2022-12-18T00:06:42;13.57;;;6.87;;
23206;SDS011;11773;52.570;13.052;2022-12-18T00:09:13;12.83;;;6.53;;
23206;SDS011;11773;52.570;13.052;2022-12-18T00:11:43;7.20;;;4.77;;
23206;SDS011;11773;52.570;13.052;2022-12-18T00:14:13;6.73;;;3.83;;
23206;SDS011;11773;52.570;13.052;2022-12-18T00:16:44;6.53;;;3.73;;
23206;SDS011;11773;52.570;13.052;2022-12-18T00:19:14;6.53;;;4.40;;
23206;SDS011;11773;52.570;13.052;2022-12-18T00:21:44;8.43;;;4.83;;
23206;SDS011;11773;52.570;13.052;2022-12-18T00:24:13;8.93;;;5.20;;
23206;SDS011;11773;52.570;13.052;2022-12-18T00:26:43;8.80;;;4.73;;
23206;SDS011;11773;52.570;13.052;2022-12-18T00:29:13;9.17;;;5.00;;
23206;SDS011;11773;52.570;13.052;2022-12-18T00:31:43;14.57;;;7.63;;
23206;SDS011;11773;52.570;13.052;2022-12-18T00:34:12;10.33;;;5.90;;
23206;SDS011;11773;52.570;13.052;2022-12-18T00:36:42;11.93;;;5.70;;
23206;SDS011;11773;52.570;13.052;2022-12-18T00:39:12;12.00;;;6.57;;
23206;SDS011;11773;52.570;13.052;2022-12-18T00:41:41;16.00;;;8.10;;
23206;SDS011;11773;52.570;13.052;2022-12-18T00:44:28;10.17;;;5.40;;
23206;SDS011;11773;52.570;13.052;2022-12-18T00:46:57;11.00;;;5.83;;
23206;SDS011;11773;52.570;13.052;2022-12-18T00:49:27;9.63;;;4.97;;
23206;SDS011;11773;52.570;13.052;2022-12-18T00:51:57;13.57;;;6.50;;
23206;SDS011;11773;52.570;13.052;2022-12-18T00:54:26;7.57;;;4.50;;
23206;SDS011;11773;52.570;13.052;2022-12-18T00:56:56;7.07;;;3.83;;
23206;SDS011;11773;52.570;13.052;2022-12-18T00:59:25;6.63;;;4.20;;
23206;SDS011;11773;52.570;13.052;2022-12-18T01:01:55;7.30;;;4.23;;
23206;SDS011;11773;52.570;13.052;2022-12-18T01:04:24;10.40;;;4.97;;
23206;SDS011;11773;52.570;13.052;2022-12-18T01:06:54;13.93;;;7.03;;
23206;SDS011;11773;52.570;13.052;2022-12-18T01:09:23;11.40;;;6.03;;
23206;SDS011;11773;52.570;13.052;2022-12-18T01:11:53;16.80;;;8.00;;
23206;SDS011;11773;52.570;13.052;2022-12-18T01:14:22;14.87;;;7.53;;
23206;SDS011;11773;52.570;13.052;2022-12-18T01:16:52;14.27;;;6.87;;
23206;SDS011;11773;52.570;13.052;2022-12-18T01:19:21;11.90;;;6.37;;
23206;SDS011;11773;52.570;13.052;2022-12-18T01:21:51;15.37;;;6.87;;
23206;SDS011;11773;52.570;13.052;2022-12-18T01:24:21;9.57;;;5.10;;
23206;SDS011;11773;52.570;13.052;2022-12-18T01:26:50;12.67;;;6.00;;
23206;SDS011;11773;52.570;13.052;2022-12-18T01:29:20;9.57;;;4.60;;
23206;SDS011;11773;52.570;13.052;2022-12-18T01:31:49;7.80;;;3.87;;
23206;SDS011;11773;52.570;13.052;2022-12-18T01:34:21;5.40;;;3.57;;
23206;SDS011;11773;52.570;13.052;2022-12-18T01:36:51;5.93;;;3.40;;
23206;SDS011;11773;52.570;13.052;2022-12-18T01:39:21;10.03;;;4.60;;
23206;SDS011;11773;52.570;13.052;2022-12-18T01:41:52;12.20;;;6.37;;
23206;SDS011;11773;52.570;13.052;2022-12-18T01:44:51;13.93;;;6.83;;
23206;SDS011;11773;52.570;13.052;2022-12-18T01:47:39;11.37;;;6.27;;
23206;SDS011;11773;52.570;13.052;2022-12-18T01:50:31;13.93;;;7.23;;
23206;SDS011;11773;52.570;13.052;2022-12-18T01:53:14;12.70;;;6.77;;
23206;SDS011;11773;52.570;13.052;2022-12-18T01:55:47;11.47;;;5.77;;
23206;SDS011;11773;52.570;13.052;2022-12-18T01:58:22;9.57;;;4.87;;
23206;SDS011;11773;52.570;13.052;2022-12-18T02:01:00;7.53;;;3.97;;
23206;SDS011;11773;52.570;13.052;2022-12-18T02:03:30;6.47;;;3.40;;
23206;SDS011;11773;52.570;13.052;2022-12-18T02:06:08;5.17;;;3.23;;
23206;SDS011;11773;52.570;13.052;2022-12-18T02:11:42;5.40;;;3.13;;
23206;SDS011;11773;52.570;13.052;2022-12-18T02:14:38;5.67;;;3.27;;
23206;SDS011;11773;52.570;13.052;2022-12-18T02:17:21;6.23;;;3.10;;
23206;SDS011;11773;52.570;13.052;2022-12-18T02:20:12;9.97;;;4.90;;
23206;SDS011;11773;52.570;13.052;2022-12-18T02:26:05;9.43;;;5.00;;
23206;SDS011;11773;52.570;13.052;2022-12-18T02:28:44;8.33;;;4.33;;
23206;SDS011;11773;52.570;13.052;2022-12-18T02:31:27;15.27;;;6.63;;
23206;SDS011;11773;52.570;13.052;2022-12-18T02:33:56;14.80;;;6.73;;
23206;SDS011;11773;52.570;13.052;2022-12-18T02:36:30;8.93;;;4.47;;
23206;SDS011;11773;52.570;13.052;2022-12-18T02:39:03;8.63;;;4.10;;
23206;SDS011;11773;52.570;13.052;2022-12-18T02:41:36;11.83;;;6.00;;
23206;SDS011;11773;52.570;13.052;2022-12-18T02:44:08;7.97;;;4.80;;
23206;SDS011;11773;52.570;13.052;2022-12-18T02:46:42;10.50;;;5.67;;
23206;SDS011;11773;52.570;13.052;2022-12-18T02:55:55;8.60;;;4.60;;
23206;SDS011;11773;52.570;13.052;2022-12-18T02:58:47;5.80;;;3.23;;
23206;SDS011;11773;52.570;13.052;2022-12-18T03:01:42;5.43;;;2.93;;
23206;SDS011;11773;52.570;13.052;2022-12-18T03:04:17;5.07;;;2.97;;
23206;SDS011;11773;52.570;13.052;2022-12-18T03:06:59;7.87;;;4.27;;
23206;SDS011;11773;52.570;13.052;2022-12-18T03:09:34;5.57;;;3.30;;
23206;SDS011;11773;52.570;13.052;2022-12-18T03:15:28;8.67;;;5.03;;
23206;SDS011;11773;52.570;13.052;2022-12-18T03:17:41;6.03;;;3.60;;
23206;SDS011;11773;52.570;13.052;2022-12-18T03:20:19;7.10;;;3.97;;
23206;SDS011;11773;52.570;13.052;2022-12-18T03:22:53;6.83;;;3.83;;
23206;SDS011;11773;52.570;13.052;2022-12-18T03:25:26;12.13;;;6.43;;
23206;SDS011;11773;52.570;13.052;2022-12-18T03:27:59;13.43;;;6.93;;
23206;SDS011;11773;52.570;13.052;2022-12-18T03:30:33;12.00;;;5.97;;
23206;SDS011;11773;52.570;13.052;2022-12-18T03:33:08;11.47;;;5.70;;
23206;SDS011;11773;52.570;13.052;2022-12-18T03:35:41;10.83;;;6.03;;
23206;SDS011;11773;52.570;13.052;2022-12-18T03:38:12;9.97;;;4.73;;
23206;SDS011;11773;52.570;13.052;2022-12-18T03:47:04;10.07;;;4.93;;
23206;SDS011;11773;52.570;13.052;2022-12-18T03:48:57;11.90;;;5.80;;
23206;SDS011;11773;52.570;13.052;2022-12-18T03:54:20;15.40;;;7.73;;
23206;SDS011;11773;52.570;13.052;2022-12-18T03:56:56;23.33;;;10.50;;
23206;SDS011;11773;52.570;13.052;2022-12-18T03:59:28;12.20;;;6.50;;
23206;SDS011;11773;52.570;13.052;2022-12-18T04:01:59;9.90;;;5.37;;
23206;SDS011;11773;52.570;13.052;2022-12-18T04:04:33;11.00;;;5.50;;
23206;SDS011;11773;52.570;13.052;2022-12-18T04:07:06;10.43;;;4.53;;
23206;SDS011;11773;52.570;13.052;2022-12-18T04:09:36;13.70;;;5.93;;
23206;SDS011;11773;52.570;13.052;2022-12-18T04:12:09;11.53;;;5.77;;
23206;SDS011;11773;52.570;13.052;2022-12-18T04:14:39;8.37;;;4.20;;
23206;SDS011;11773;52.570;13.052;2022-12-18T04:17:08;8.27;;;3.60;;
23206;SDS011;11773;52.570;13.052;2022-12-18T04:19:38;6.37;;;3.57;;
23206;SDS011;11773;52.570;13.052;2022-12-18T04:22:09;6.23;;;3.33;;
23206;SDS011;11773;52.570;13.052;2022-12-18T04:24:39;10.00;;;5.00;;
23206;SDS011;11773;52.570;13.052;2022-12-18T04:27:08;11.07;;;5.93;;
23206;SDS011;11773;52.570;13.052;2022-12-18T04:29:38;12.57;;;6.30;;
23206;SDS011;11773;52.570;13.052;2022-12-18T04:32:07;8.03;;;4.40;;
23206;SDS011;11773;52.570;13.052;2022-12-18T04:34:37;10.07;;;5.10;;
23206;SDS011;11773;52.570;13.052;2022-12-18T04:37:06;10.00;;;4.70;;
23206;SDS011;11773;52.570;13.052;2022-12-18T04:39:36;11.73;;;6.53;;
23206;SDS011;11773;52.570;13.052;2022-12-18T04:42:05;13.93;;;6.77;;
23206;SDS011;11773;52.570;13.052;2022-12-18T04:44:36;13.37;;;7.30;;
23206;SDS011;11773;52.570;13.052;2022-12-18T04:47:05;18.40;;;8.60;;
23206;SDS011;11773;52.570;13.052;2022-12-18T04:49:35;13.20;;;7.43;;
23206;SDS011;11773;52.570;13.052;2022-12-18T04:52:04;12.60;;;6.23;;
23206;SDS011;11773;52.570;13.052;2022-12-18T04:54:35;13.10;;;6.10;;
23206;SDS011;11773;52.570;13.052;2022-12-18T04:57:04;9.50;;;4.90;;
23206;SDS011;11773;52.570;13.052;2022-12-18T04:59:33;9.53;;;4.70;;
23206;SDS011;11773;52.570;13.052;2022-12-18T05:02:03;12.50;;;6.37;;
23206;SDS011;11773;52.570;13.052;2022-12-18T05:04:33;16.23;;;7.90;;
23206;SDS011;11773;52.570;13.052;2022-12-18T05:07:02;21.40;;;9.93;;
23206;SDS011;11773;52.570;13.052;2022-12-18T05:09:31;17.30;;;9.00;;
23206;SDS011;11773;52.570;13.052;2022-12-18T05:12:01;18.23;;;9.40;;
23206;SDS011;11773;52.570;13.052;2022-12-18T05:14:30;12.77;;;6.37;;
23206;SDS011;11773;52.570;13.052;2022-12-18T05:17:00;17.30;;;7.73;;
23206;SDS011;11773;52.570;13.052;2022-12-18T05:19:29;15.37;;;7.53;;
23206;SDS011;11773;52.570;13.052;2022-12-18T05:21:59;10.17;;;5.23;;
23206;SDS011;11773;52.570;13.052;2022-12-18T05:24:28;9.60;;;4.63;;
23206;SDS011;11773;52.570;13.052;2022-12-18T05:26:58;13.07;;;6.27;;
23206;SDS011;11773;52.570;13.052;2022-12-18T05:29:27;9.53;;;5.47;;
23206;SDS011;11773;52.570;13.052;2022-12-18T05:31:57;8.50;;;4.70;;
23206;SDS011;11773;52.570;13.052;2022-12-18T05:34:26;7.10;;;4.40;;
23206;SDS011;11773;52.570;13.052;2022-12-18T05:36:56;6.40;;;3.53;;
23206;SDS011;11773;52.570;13.052;2022-12-18T05:39:25;8.70;;;4.80;;
23206;SDS011;11773;52.570;13.052;2022-12-18T05:41:55;9.13;;;4.60;;
23206;SDS011;11773;52.570;13.052;2022-12-18T05:44:24;9.10;;;5.03;;
23206;SDS011;11773;52.570;13.052;2022-12-18T05:46:54;13.20;;;5.97;;
23206;SDS011;11773;52.570;13.052;2022-12-18T05:49:23;10.70;;;5.70;;
23206;SDS011;11773;52.570;13.052;2022-12-18T05:51:53;10.57;;;5.53;;
23206;SDS011;11773;52.570;13.052;2022-12-18T05:54:22;9.57;;;5.13;;
23206;SDS011;11773;52.570;13.052;2022-12-18T05:56:52;9.00;;;4.73;;
23206;SDS011;11773;52.570;13.052;2022-12-18T05:59:21;7.07;;;3.93;;
23206;SDS011;11773;52.570;13.052;2022-12-18T06:01:51;7.20;;;4.25;;
23206;SDS011;11773;52.570;13.052;2022-12-18T06:04:21;5.70;;;3.67;;
23206;SDS011;11773;52.570;13.052;2022-12-18T06:06:50;6.97;;;4.13;;
23206;SDS011;11773;52.570;13.052;2022-12-18T06:09:20;8.30;;;4.40;;
23206;SDS011;11773;52.570;13.052;2022-12-18T06:11:51;10.53;;;5.20;;
23206;SDS011;11773;52.570;13.052;2022-12-18T06:14:20;9.90;;;5.03;;
23206;SDS011;11773;52.570;13.052;2022-12-18T06:16:50;10.17;;;5.17;;
23206;SDS011;11773;52.570;13.052;2022-12-18T06:19:20;12.23;;;6.70;;
23206;SDS011;11773;52.570;13.052;2022-12-18T06:21:49;9.77;;;5.40;;
23206;SDS011;11773;52.570;13.052;2022-12-18T06:24:19;12.17;;;6.63;;
23206;SDS011;11773;52.570;13.052;2022-12-18T06:26:48;15.60;;;8.53;;
23206;SDS011;11773;52.570;13.052;2022-12-18T06:29:18;11.07;;;6.10;;
23206;SDS011;11773;52.570;13.052;2022-12-18T06:31:47;13.50;;;7.30;;
23206;SDS011;11773;52.570;13.052;2022-12-18T06:34:17;15.33;;;7.97;;
23206;SDS011;11773;52.570;13.052;2022-12-18T06:36:46;11.30;;;5.83;;
23206;SDS011;11773;52.570;13.052;2022-12-18T06:39:16;12.47;;;6.60;;
23206;SDS011;11773;52.570;13.052;2022-12-18T06:41:45;9.93;;;4.87;;
23206;SDS011;11773;52.570;13.052;2022-12-18T06:44:15;7.87;;;4.10;;
23206;SDS011;11773;52.570;13.052;2022-12-18T06:46:44;8.97;;;5.03;;
23206;SDS011;11773;52.570;13.052;2022-12-18T06:49:14;11.03;;;5.80;;
23206;SDS011;11773;52.570;13.052;2022-12-18T06:51:43;11.77;;;6.87;;
23206;SDS011;11773;52.570;13.052;2022-12-18T06:54:13;12.80;;;7.53;;
23206;SDS011;11773;52.570;13.052;2022-12-18T06:56:44;10.60;;;5.50;;
23206;SDS011;11773;52.570;13.052;2022-12-18T06:59:14;13.90;;;7.40;;
23206;SDS011;11773;52.570;13.052;2022-12-18T07:01:44;11.57;;;5.90;;
23206;SDS011;11773;52.570;13.052;2022-12-18T07:04:14;10.63;;;5.60;;
23206;SDS011;11773;52.570;13.052;2022-12-18T07:06:43;12.40;;;6.83;;
23206;SDS011;11773;52.570;13.052;2022-12-18T07:09:13;9.73;;;5.37;;
23206;SDS011;11773;52.570;13.052;2022-12-18T07:11:42;14.67;;;7.47;;
23206;SDS011;11773;52.570;13.052;2022-12-18T07:14:11;16.17;;;8.27;;
23206;SDS011;11773;52.570;13.052;2022-12-18T07:16:41;12.20;;;6.30;;
23206;SDS011;11773;52.570;13.052;2022-12-18T07:19:10;14.17;;;7.37;;
23206;SDS011;11773;52.570;13.052;2022-12-18T07:21:40;12.37;;;6.43;;
23206;SDS011;11773;52.570;13.052;2022-12-18T07:24:09;15.80;;;8.43;;
23206;SDS011;11773;52.570;13.052;2022-12-18T07:26:39;13.53;;;6.70;;
23206;SDS011;11773;52.570;13.052;2022-12-18T07:29:08;15.30;;;8.67;;
23206;SDS011;11773;52.570;13.052;2022-12-18T07:31:38;16.17;;;7.73;;
23206;SDS011;11773;52.570;13.052;2022-12-18T07:34:13;19.20;;;9.40;;
23206;SDS011;11773;52.570;13.052;2022-12-18T07:36:43;14.20;;;7.93;;
23206;SDS011;11773;52.570;13.052;2022-12-18T07:39:12;19.40;;;10.17;;
23206;SDS011;11773;52.570;13.052;2022-12-18T07:41:42;18.27;;;9.57;;
23206;SDS011;11773;52.570;13.052;2022-12-18T07:44:13;12.80;;;6.67;;
23206;SDS011;11773;52.570;13.052;2022-12-18T07:46:43;16.43;;;7.97;;
23206;SDS011;11773;52.570;13.052;2022-12-18T07:49:12;16.13;;;9.40;;
23206;SDS011;11773;52.570;13.052;2022-12-18T07:51:41;16.60;;;8.30;;
23206;SDS011;11773;52.570;13.052;2022-12-18T07:54:13;16.03;;;7.90;;
23206;SDS011;11773;52.570;13.052;2022-12-18T07:56:42;12.33;;;6.43;;
23206;SDS011;11773;52.570;13.052;2022-12-18T07:59:12;14.03;;;7.63;;
23206;SDS011;11773;52.570;13.052;2022-12-18T08:01:41;12.77;;;7.23;;
23206;SDS011;11773;52.570;13.052;2022-12-18T08:04:12;13.77;;;7.17;;
23206;SDS011;11773;52.570;13.052;2022-12-18T08:06:42;12.80;;;7.00;;
23206;SDS011;11773;52.570;13.052;2022-12-18T08:09:13;13.20;;;7.57;;
23206;SDS011;11773;52.570;13.052;2022-12-18T08:11:43;15.60;;;7.93;;
23206;SDS011;11773;52.570;13.052;2022-12-18T08:14:12;15.20;;;8.93;;
23206;SDS011;11773;52.570;13.052;2022-12-18T08:16:42;14.27;;;7.43;;
23206;SDS011;11773;52.570;13.052;2022-12-18T08:19:11;12.53;;;6.33;;
23206;SDS011;11773;52.570;13.052;2022-12-18T08:21:41;10.50;;;6.03;;
23206;SDS011;11773;52.570;13.052;2022-12-18T08:24:10;12.10;;;6.17;;
23206;SDS011;11773;52.570;13.052;2022-12-18T08:26:40;11.33;;;6.03;;
23206;SDS011;11773;52.570;13.052;2022-12-18T08:29:11;14.67;;;7.10;;
23206;SDS011;11773;52.570;13.052;2022-12-18T08:31:42;13.30;;;7.40;;
23206;SDS011;11773;52.570;13.052;2022-12-18T08:34:12;15.53;;;8.90;;
23206;SDS011;11773;52.570;13.052;2022-12-18T08:36:41;15.03;;;7.80;;
23206;SDS011;11773;52.570;13.052;2022-12-18T08:39:11;17.63;;;8.90;;
23206;SDS011;11773;52.570;13.052;2022-12-18T08:41:40;11.43;;;6.70;;
23206;SDS011;11773;52.570;13.052;2022-12-18T08:44:11;9.90;;;6.17;;
23206;SDS011;11773;52.570;13.052;2022-12-18T08:46:45;15.47;;;7.73;;
23206;SDS011;11773;52.570;13.052;2022-12-18T08:49:14;15.97;;;8.60;;
23206;SDS011;11773;52.570;13.052;2022-12-18T08:51:44;15.30;;;7.97;;
23206;SDS011;11773;52.570;13.052;2022-12-18T08:54:13;19.73;;;10.53;;
23206;SDS011;11773;52.570;13.052;2022-12-18T08:56:43;17.87;;;9.20;;
23206;SDS011;11773;52.570;13.052;2022-12-18T08:59:12;12.97;;;7.10;;
23206;SDS011;11773;52.570;13.052;2022-12-18T09:01:43;7.27;;;4.70;;
23206;SDS011;11773;52.570;13.052;2022-12-18T09:04:15;10.70;;;5.93;;
23206;SDS011;11773;52.570;13.052;2022-12-18T09:06:44;16.17;;;8.47;;
23206;SDS011;11773;52.570;13.052;2022-12-18T09:09:14;14.40;;;8.20;;
23206;SDS011;11773;52.570;13.052;2022-12-18T09:11:43;17.40;;;8.33;;
23206;SDS011;11773;52.570;13.052;2022-12-18T09:14:13;19.97;;;8.50;;
23206;SDS011;11773;52.570;13.052;2022-12-18T09:16:42;16.43;;;8.80;;
23206;SDS011;11773;52.570;13.052;2022-12-18T09:19:12;18.83;;;10.33;;
23206;SDS011;11773;52.570;13.052;2022-12-18T09:21:41;19.67;;;9.67;;
23206;SDS011;11773;52.570;13.052;2022-12-18T09:24:13;21.60;;;10.17;;
23206;SDS011;11773;52.570;13.052;2022-12-18T09:26:43;25.63;;;10.80;;
23206;SDS011;11773;52.570;13.052;2022-12-18T09:29:14;20.67;;;9.17;;
23206;SDS011;11773;52.570;13.052;2022-12-18T09:31:45;18.70;;;8.80;;
23206;SDS011;11773;52.570;13.052;2022-12-18T09:34:15;20.63;;;9.77;;
23206;SDS011;11773;52.570;13.052;2022-12-18T09:36:45;19.47;;;9.87;;
23206;SDS011;11773;52.570;13.052;2022-12-18T09:39:15;14.43;;;7.37;;
23206;SDS011;11773;52.570;13.052;2022-12-18T09:41:47;18.97;;;9.17;;
23206;SDS011;11773;52.570;13.052;2022-12-18T09:50:00;19.00;;;8.80;;
23206;SDS011;11773;52.570;13.052;2022-12-18T09:52:39;15.73;;;8.43;;
23206;SDS011;11773;52.570;13.052;2022-12-18T09:55:18;16.63;;;8.57;;
23206;SDS011;11773;52.570;13.052;2022-12-18T09:57:57;19.30;;;9.63;;
23206;SDS011;11773;52.570;13.052;2022-12-18T10:00:31;21.87;;;10.25;;
23206;SDS011;11773;52.570;13.052;2022-12-18T10:03:11;15.07;;;7.47;;
23206;SDS011;11773;52.570;13.052;2022-12-18T10:05:54;15.33;;;7.63;;
23206;SDS011;11773;52.570;13.052;2022-12-18T10:08:43;13.43;;;6.70;;
23206;SDS011;11773;52.570;13.052;2022-12-18T10:14:53;17.23;;;9.07;;
23206;SDS011;11773;52.570;13.052;2022-12-18T10:17:22;12.80;;;7.47;;
23206;SDS011;11773;52.570;13.052;2022-12-18T10:20:02;17.02;;;8.83;;
23206;SDS011;11773;52.570;13.052;2022-12-18T10:22:56;12.03;;;6.07;;
23206;SDS011;11773;52.570;13.052;2022-12-18T10:28:22;13.90;;;7.87;;
23206;SDS011;11773;52.570;13.052;2022-12-18T10:30:53;19.67;;;10.33;;
23206;SDS011;11773;52.570;13.052;2022-12-18T10:33:24;18.83;;;10.10;;
23206;SDS011;11773;52.570;13.052;2022-12-18T10:35:57;13.87;;;7.30;;
23206;SDS011;11773;52.570;13.052;2022-12-18T10:38:28;12.33;;;6.77;;
23206;SDS011;11773;52.570;13.052;2022-12-18T10:41:01;15.85;;;8.93;;
23206;SDS011;11773;52.570;13.052;2022-12-18T10:43:38;14.53;;;8.20;;
23206;SDS011;11773;52.570;13.052;2022-12-18T10:51:30;16.00;;;9.00;;
23206;SDS011;11773;52.570;13.052;2022-12-18T10:54:01;14.80;;;8.40;;
23206;SDS011;11773;52.570;13.052;2022-12-18T10:56:36;13.77;;;7.97;;
23206;SDS011;11773;52.570;13.052;2022-12-18T10:59:09;11.07;;;7.03;;
23206;SDS011;11773;52.570;13.052;2022-12-18T11:01:54;10.83;;;6.67;;
23206;SDS011;11773;52.570;13.052;2022-12-18T11:04:26;13.00;;;7.03;;
23206;SDS011;11773;52.570;13.052;2022-12-18T11:09:36;11.87;;;6.27;;
23206;SDS011;11773;52.570;13.052;2022-12-18T11:14:47;13.10;;;7.27;;
23206;SDS011;11773;52.570;13.052;2022-12-18T11:17:20;13.80;;;7.33;;
23206;SDS011;11773;52.570;13.052;2022-12-18T11:20:21;11.63;;;6.87;;
23206;SDS011;11773;52.570;13.052;2022-12-18T11:22:56;14.83;;;8.33;;
23206;SDS011;11773;52.570;13.052;2022-12-18T11:25:30;13.40;;;7.23;;
23206;SDS011;11773;52.570;13.052;2022-12-18T11:28:08;16.67;;;9.20;;
23206;SDS011;11773;52.570;13.052;2022-12-18T11:31:21;13.10;;;7.53;;
23206;SDS011;11773;52.570;13.052;2022-12-18T11:33:59;11.73;;;7.00;;
23206;SDS011;11773;52.570;13.052;2022-12-18T11:36:44;15.07;;;8.37;;
23206;SDS011;11773;52.570;13.052;2022-12-18T11:39:17;15.97;;;8.90;;
23206;SDS011;11773;52.570;13.052;2022-12-18T11:42:05;13.83;;;8.20;;
23206;SDS011;11773;52.570;13.052;2022-12-18T11:44:51;16.67;;;9.67;;
23206;SDS011;11773;52.570;13.052;2022-12-18T11:47:28;14.00;;;8.30;;
23206;SDS011;11773;52.570;13.052;2022-12-18T11:50:19;12.17;;;7.10;;
23206;SDS011;11773;52.570;13.052;2022-12-18T11:52:48;11.43;;;6.47;;
23206;SDS011;11773;52.570;13.052;2022-12-18T11:55:25;14.30;;;8.40;;
23206;SDS011;11773;52.570;13.052;2022-12-18T11:58:12;15.87;;;7.90;;
23206;SDS011;11773;52.570;13.052;2022-12-18T12:01:04;12.97;;;6.13;;
23206;SDS011;11773;52.570;13.052;2022-12-18T12:06:51;10.63;;;6.23;;
23206;SDS011;11773;52.570;13.052;2022-12-18T12:21:40;11.97;;;7.13;;
23206;SDS011;11773;52.570;13.052;2022-12-18T12:24:19;9.30;;;5.63;;
23206;SDS011;11773;52.570;13.052;2022-12-18T12:27:28;9.77;;;6.00;;
23206;SDS011;11773;52.570;13.052;2022-12-18T12:30:08;10.87;;;6.47;;
23206;SDS011;11773;52.570;13.052;2022-12-18T12:36:10;10.20;;;6.40;;
23206;SDS011;11773;52.570;13.052;2022-12-18T12:38:42;13.03;;;7.47;;
23206;SDS011;11773;52.570;13.052;2022-12-18T12:41:19;13.47;;;7.70;;
23206;SDS011;11773;52.570;13.052;2022-12-18T12:44:14;11.07;;;6.57;;
23206;SDS011;11773;52.570;13.052;2022-12-18T12:46:58;8.70;;;5.80;;
23206;SDS011;11773;52.570;13.052;2022-12-18T12:49:34;13.23;;;7.17;;
23206;SDS011;11773;52.570;13.052;2022-12-18T12:52:07;12.00;;;6.53;;
23206;SDS011;11773;52.570;13.052;2022-12-18T12:54:44;15.83;;;10.30;;
23206;SDS011;11773;52.570;13.052;2022-12-18T12:57:29;13.37;;;8.37;;
23206;SDS011;11773;52.570;13.052;2022-12-18T13:00:24;16.03;;;9.50;;
23206;SDS011;11773;52.570;13.052;2022-12-18T13:02:56;13.63;;;8.13;;
23206;SDS011;11773;52.570;13.052;2022-12-18T13:05:49;13.10;;;7.53;;
23206;SDS011;11773;52.570;13.052;2022-12-18T13:08:29;9.30;;;5.93;;
23206;SDS011;11773;52.570;13.052;2022-12-18T13:11:02;9.60;;;6.00;;
23206;SDS011;11773;52.570;13.052;2022-12-18T13:13:57;9.87;;;6.43;;
23206;SDS011;11773;52.570;13.052;2022-12-18T13:16:25;12.87;;;7.67;;
23206;SDS011;11773;52.570;13.052;2022-12-18T13:18:55;13.03;;;7.77;;
23206;SDS011;11773;52.570;13.052;2022-12-18T13:21:29;15.17;;;9.13;;
23206;SDS011;11773;52.570;13.052;2022-12-18T13:26:58;10.40;;;5.83;;
23206;SDS011;11773;52.570;13.052;2022-12-18T13:29:40;10.60;;;6.57;;
23206;SDS011;11773;52.570;13.052;2022-12-18T13:32:23;10.90;;;6.60;;
23206;SDS011;11773;52.570;13.052;2022-12-18T13:37:52;9.90;;;6.10;;
23206;SDS011;11773;52.570;13.052;2022-12-18T13:46:06;11.27;;;6.30;;
23206;SDS011;11773;52.570;13.052;2022-12-18T13:48:58;9.50;;;5.70;;
23206;SDS011;11773;52.570;13.052;2022-12-18T13:51:33;10.67;;;6.30;;
23206;SDS011;11773;52.570;13.052;2022-12-18T13:54:12;11.10;;;7.00;;
23206;SDS011;11773;52.570;13.052;2022-12-18T13:57:05;12.50;;;7.70;;
23206;SDS011;11773;52.570;13.052;2022-12-18T13:59:53;10.67;;;7.33;;
23206;SDS011;11773;52.570;13.052;2022-12-18T14:02:25;10.70;;;7.17;;
23206;SDS011;11773;52.570;13.052;2022-12-18T14:04:56;8.60;;;5.23;;
23206;SDS011;11773;52.570;13.052;2022-12-18T14:07:26;9.27;;;6.27;;
23206;SDS011;11773;52.570;13.052;2022-12-18T14:10:00;7.83;;;5.10;;
23206;SDS011;11773;52.570;13.052;2022-12-18T14:12:33;8.10;;;5.07;;
23206;SDS011;11773;52.570;13.052;2022-12-18T14:18:02;10.87;;;6.73;;
23206;SDS011;11773;52.570;13.052;2022-12-18T14:20:54;10.80;;;6.92;;
23206;SDS011;11773;52.570;13.052;2022-12-18T14:23:33;10.20;;;6.87;;
23206;SDS011;11773;52.570;13.052;2022-12-18T14:26:26;9.30;;;6.20;;
23206;SDS011;11773;52.570;13.052;2022-12-18T14:28:59;10.03;;;6.30;;
23206;SDS011;11773;52.570;13.052;2022-12-18T14:34:47;11.83;;;7.63;;
23206;SDS011;11773;52.570;13.052;2022-12-18T14:37:22;16.23;;;9.57;;
23206;SDS011;11773;52.570;13.052;2022-12-18T14:39:58;14.37;;;9.07;;
23206;SDS011;11773;52.570;13.052;2022-12-18T14:42:33;13.57;;;8.37;;
23206;SDS011;11773;52.570;13.052;2022-12-18T14:48:06;14.17;;;7.80;;
23206;SDS011;11773;52.570;13.052;2022-12-18T14:50:40;11.07;;;6.80;;
23206;SDS011;11773;52.570;13.052;2022-12-18T14:53:20;8.43;;;6.00;;
23206;SDS011;11773;52.570;13.052;2022-12-18T14:55:53;11.47;;;6.73;;
23206;SDS011;11773;52.570;13.052;2022-12-18T14:58:23;8.33;;;5.60;;
23206;SDS011;11773;52.570;13.052;2022-12-18T15:00:54;11.08;;;6.80;;
23206;SDS011;11773;52.570;13.052;2022-12-18T15:03:24;10.77;;;6.73;;
23206;SDS011;11773;52.570;13.052;2022-12-18T15:05:54;9.00;;;6.27;;
23206;SDS011;11773;52.570;13.052;2022-12-18T15:08:29;10.83;;;7.40;;
23206;SDS011;11773;52.570;13.052;2022-12-18T15:11:22;12.63;;;7.90;;
23206;SDS011;11773;52.570;13.052;2022-12-18T15:13:53;12.27;;;7.67;;
23206;SDS011;11773;52.570;13.052;2022-12-18T15:16:22;12.90;;;8.47;;
23206;SDS011;11773;52.570;13.052;2022-12-18T15:18:52;11.23;;;7.30;;
23206;SDS011;11773;52.570;13.052;2022-12-18T15:21:22;14.77;;;9.33;;
23206;SDS011;11773;52.570;13.052;2022-12-18T15:23:52;12.07;;;7.67;;
23206;SDS011;11773;52.570;13.052;2022-12-18T15:26:22;12.40;;;7.57;;
23206;SDS011;11773;52.570;13.052;2022-12-18T15:28:55;18.17;;;10.43;;
23206;SDS011;11773;52.570;13.052;2022-12-18T15:31:30;18.07;;;10.63;;
23206;SDS011;11773;52.570;13.052;2022-12-18T15:36:47;21.43;;;12.50;;
23206;SDS011;11773;52.570;13.052;2022-12-18T15:39:19;18.10;;;11.03;;
23206;SDS011;11773;52.570;13.052;2022-12-18T15:41:49;23.20;;;12.70;;
23206;SDS011;11773;52.570;13.052;2022-12-18T15:44:36;21.03;;;12.50;;
23206;SDS011;11773;52.570;13.052;2022-12-18T15:47:10;21.90;;;12.60;;
23206;SDS011;11773;52.570;13.052;2022-12-18T15:49:40;22.70;;;12.77;;
23206;SDS011;11773;52.570;13.052;2022-12-18T15:52:09;25.23;;;14.67;;
23206;SDS011;11773;52.570;13.052;2022-12-18T15:54:43;23.00;;;13.63;;
23206;SDS011;11773;52.570;13.052;2022-12-18T15:57:30;19.63;;;10.60;;
23206;SDS011;11773;52.570;13.052;2022-12-18T16:00:00;21.00;;;11.90;;
23206;SDS011;11773;52.570;13.052;2022-12-18T16:02:30;25.77;;;13.87;;
23206;SDS011;11773;52.570;13.052;2022-12-18T16:05:00;21.63;;;12.17;;
23206;SDS011;11773;52.570;13.052;2022-12-18T16:07:30;18.03;;;10.90;;
23206;SDS011;11773;52.570;13.052;2022-12-18T16:09:59;15.10;;;9.50;;
23206;SDS011;11773;52.570;13.052;2022-12-18T16:12:29;19.77;;;11.40;;
23206;SDS011;11773;52.570;13.052;2022-12-18T16:15:00;20.53;;;11.53;;
23206;SDS011;11773;52.570;13.052;2022-12-18T16:17:31;18.87;;;10.73;;
23206;SDS011;11773;52.570;13.052;2022-12-18T16:20:01;20.73;;;12.10;;
23206;SDS011;11773;52.570;13.052;2022-12-18T16:22:30;21.27;;;11.50;;
23206;SDS011;11773;52.570;13.052;2022-12-18T16:25:00;19.23;;;12.10;;
23206;SDS011;11773;52.570;13.052;2022-12-18T16:27:29;15.93;;;10.20;;
23206;SDS011;11773;52.570;13.052;2022-12-18T16:29:59;18.10;;;10.97;;